createdAt,value
2023-04-27T00:01:49.000Z,63.63
2023-04-27T00:03:21.929Z,63.71
2023-04-27T00:04:44.688Z,63.60
2023-04-27T00:06:06.904Z,63.71
2023-04-27T00:07:36.572Z,63.53
2023-04-27T00:09:00.750Z,63.53
2023-04-27T00:10:29.927Z,63.74
2023-04-27T00:12:02.029Z,63.72
2023-04-27T00:13:23.617Z,63.68
2023-04-27T00:14:48.248Z,64.03
2023-04-27T00:16:09.868Z,63.95
2023-04-27T00:17:43.756Z,64.06
2023-04-27T00:19:05.561Z,64.20
2023-04-27T00:20:27.740Z,64.29
2023-04-27T00:21:49.989Z,63.93
2023-04-27T00:23:16.067Z,64.40
2023-04-27T00:24:49.656Z,64.48
2023-04-27T00:26:18.644Z,64.62
2023-04-27T00:27:42.361Z,64.53
2023-04-27T00:29:04.395Z,64.68
2023-04-27T00:30:28.432Z,64.72
2023-04-27T00:31:52.717Z,64.36
2023-04-27T00:33:17.170Z,64.51
2023-04-27T00:34:45.572Z,64.61
2023-04-27T00:36:06.287Z,64.59
2023-04-27T00:37:28.456Z,64.62
2023-04-27T00:39:00.408Z,64.65
2023-04-27T00:40:21.937Z,64.77
2023-04-27T00:41:44.128Z,64.77
2023-04-27T00:43:07.783Z,65.10
2023-04-27T00:44:29.580Z,65.15
2023-04-27T00:45:53.283Z,64.92
2023-04-27T00:47:14.725Z,64.99
2023-04-27T00:48:41.262Z,65.22
2023-04-27T00:50:11.960Z,65.14
2023-04-27T00:51:33.611Z,65.32
2023-04-27T00:52:57.916Z,65.31
2023-04-27T00:54:20.036Z,65.16
2023-04-27T00:55:46.471Z,65.30
2023-04-27T00:57:10.635Z,65.17
2023-04-27T00:58:34.967Z,65.26
2023-04-27T00:59:59.077Z,65.29
2023-04-27T01:01:21.475Z,65.35
2023-04-27T01:02:57.774Z,65.38
2023-04-27T01:04:24.439Z,65.44
2023-04-27T01:05:46.561Z,65.40
2023-04-27T01:07:09.415Z,65.17
2023-04-27T01:08:31.063Z,65.33
2023-04-27T01:09:52.704Z,65.58
2023-04-27T01:11:21.849Z,65.65
2023-04-27T01:12:43.803Z,65.16
2023-04-27T01:14:05.500Z,65.52
2023-04-27T01:15:29.436Z,65.35
2023-04-27T01:16:51.367Z,65.42
2023-04-27T01:18:28.303Z,65.46
2023-04-27T01:19:55.248Z,65.51
2023-04-27T01:21:17.124Z,65.42
2023-04-27T01:22:41.390Z,65.43
2023-04-27T01:24:03.893Z,65.41
2023-04-27T01:25:33.268Z,65.55
2023-04-27T01:27:09.089Z,65.74
2023-04-27T01:28:32.055Z,65.54
2023-04-27T01:30:03.545Z,65.49
2023-04-27T01:31:39.068Z,65.56
2023-04-27T01:33:01.478Z,65.62
2023-04-27T01:34:23.249Z,65.29
2023-04-27T01:35:47.669Z,65.47
2023-04-27T01:37:09.158Z,65.99
2023-04-27T01:38:30.923Z,65.78
2023-04-27T01:40:06.573Z,65.76
2023-04-27T01:41:28.505Z,65.80
2023-04-27T01:42:50.542Z,66.00
2023-04-27T01:44:21.833Z,66.10
2023-04-27T01:45:53.610Z,66.10
2023-04-27T01:47:28.439Z,65.94
2023-04-27T01:48:50.529Z,66.15
2023-04-27T01:50:20.169Z,66.15
2023-04-27T01:52:01.033Z,66.28
2023-04-27T01:53:30.461Z,66.27
2023-04-27T01:55:04.394Z,66.31
2023-04-27T01:56:38.237Z,66.16
2023-04-27T01:58:00.384Z,66.29
2023-04-27T01:59:29.339Z,66.48
2023-04-27T02:00:59.194Z,66.54
2023-04-27T02:02:21.405Z,66.36
2023-04-27T02:04:07.059Z,66.72
2023-04-27T02:05:30.400Z,66.56
2023-04-27T02:06:59.485Z,66.72
2023-04-27T02:08:23.308Z,66.51
2023-04-27T02:09:57.053Z,66.49
2023-04-27T02:11:26.583Z,66.57
2023-04-27T02:12:50.979Z,66.78
2023-04-27T02:14:12.128Z,66.61
2023-04-27T02:15:36.339Z,66.75
2023-04-27T02:17:00.254Z,66.70
2023-04-27T02:18:21.348Z,66.81
2023-04-27T02:19:43.811Z,66.84
2023-04-27T02:21:05.880Z,66.95
2023-04-27T02:22:30.199Z,66.90
2023-04-27T02:23:54.750Z,67.04
2023-04-27T02:25:24.022Z,66.93
2023-04-27T02:26:48.856Z,67.07
2023-04-27T02:28:10.466Z,67.11
2023-04-27T02:29:40.278Z,67.11
2023-04-27T02:31:03.234Z,66.90
2023-04-27T02:32:32.682Z,66.94
2023-04-27T02:34:14.800Z,67.20
2023-04-27T02:35:39.300Z,66.94
2023-04-27T02:37:23.006Z,66.85
2023-04-27T02:38:52.333Z,66.93
2023-04-27T02:40:32.867Z,66.93
2023-04-27T02:41:54.997Z,66.79
2023-04-27T02:43:18.628Z,67.01
2023-04-27T02:44:40.806Z,67.02
2023-04-27T02:46:04.446Z,67.11
2023-04-27T02:47:25.997Z,67.10
2023-04-27T02:48:51.038Z,67.20
2023-04-27T02:50:14.778Z,67.02
2023-04-27T02:51:37.017Z,67.27
2023-04-27T02:53:01.057Z,67.16
2023-04-27T02:54:34.763Z,67.26
2023-04-27T02:56:08.309Z,67.20
2023-04-27T02:57:30.215Z,67.45
2023-04-27T02:58:51.863Z,67.18
2023-04-27T03:00:13.536Z,67.50
2023-04-27T03:01:38.336Z,67.25
2023-04-27T03:03:00.490Z,67.41
2023-04-27T03:04:22.683Z,67.33
2023-04-27T03:05:44.969Z,67.55
2023-04-27T03:07:06.520Z,67.30
2023-04-27T03:08:28.346Z,67.22
2023-04-27T03:09:53.187Z,67.48
2023-04-27T03:11:14.771Z,67.40
2023-04-27T03:12:46.663Z,67.70
2023-04-27T03:14:08.018Z,67.47
2023-04-27T03:15:29.776Z,67.69
2023-04-27T03:16:54.347Z,67.84
2023-04-27T03:18:15.935Z,67.64
2023-04-27T03:19:40.816Z,67.98
2023-04-27T03:21:04.653Z,67.78
2023-04-27T03:22:28.480Z,67.88
2023-04-27T03:23:58.267Z,67.64
2023-04-27T03:25:31.641Z,67.87
2023-04-27T03:26:58.356Z,67.81
2023-04-27T03:28:31.954Z,67.86
2023-04-27T03:29:56.092Z,67.88
2023-04-27T03:31:26.864Z,68.05
2023-04-27T03:32:48.972Z,67.78
2023-04-27T03:34:24.422Z,67.89
2023-04-27T03:35:48.847Z,67.94
2023-04-27T03:37:22.298Z,68.21
2023-04-27T03:38:56.280Z,68.09
2023-04-27T03:40:17.888Z,68.16
2023-04-27T03:41:42.318Z,68.11
2023-04-27T03:43:09.486Z,67.81
2023-04-27T03:44:33.429Z,68.35
2023-04-27T03:45:55.380Z,68.14
2023-04-27T03:47:28.525Z,68.16
2023-04-27T03:48:50.837Z,68.37
2023-04-27T03:50:12.476Z,68.31
2023-04-27T03:51:38.123Z,68.28
2023-04-27T03:53:02.310Z,68.47
2023-04-27T03:54:23.888Z,68.52
2023-04-27T03:55:48.188Z,68.48
2023-04-27T03:57:12.312Z,68.52
2023-04-27T03:58:34.058Z,68.27
2023-04-27T04:00:12.060Z,68.19
2023-04-27T04:01:48.391Z,68.22
2023-04-27T04:03:12.593Z,68.28
2023-04-27T04:04:37.492Z,68.53
2023-04-27T04:06:11.163Z,68.29
2023-04-27T04:07:46.129Z,68.55
2023-04-27T04:09:20.141Z,68.39
2023-04-27T04:10:57.954Z,68.32
2023-04-27T04:12:33.864Z,68.19
2023-04-27T04:13:58.191Z,68.28
2023-04-27T04:15:20.344Z,68.43
2023-04-27T04:16:43.211Z,68.21
2023-04-27T04:18:07.879Z,68.23
2023-04-27T04:19:29.377Z,68.27
2023-04-27T04:20:52.426Z,68.19
2023-04-27T04:22:25.923Z,68.22
2023-04-27T04:23:56.466Z,68.21
2023-04-27T04:25:18.827Z,68.13
2023-04-27T04:26:54.922Z,68.00
2023-04-27T04:28:16.268Z,68.04
2023-04-27T04:29:40.428Z,68.09
2023-04-27T04:31:02.897Z,67.82
2023-04-27T04:32:24.477Z,67.96
2023-04-27T04:33:46.739Z,67.79
2023-04-27T04:35:21.322Z,67.81
2023-04-27T04:36:47.916Z,67.39
2023-04-27T04:38:14.376Z,67.47
2023-04-27T04:39:38.225Z,67.14
2023-04-27T04:41:10.082Z,67.24
2023-04-27T04:42:33.304Z,67.05
2023-04-27T04:44:14.153Z,66.69
2023-04-27T04:45:36.595Z,66.66
2023-04-27T04:47:10.186Z,66.69
2023-04-27T04:48:34.376Z,66.55
2023-04-27T04:50:10.875Z,66.58
2023-04-27T04:51:36.853Z,66.59
2023-04-27T04:53:10.133Z,66.19
2023-04-27T04:54:45.610Z,66.21
2023-04-27T04:56:07.195Z,65.95
2023-04-27T04:57:28.555Z,65.96
2023-04-27T04:58:50.639Z,65.45
2023-04-27T05:00:13.425Z,65.50
2023-04-27T05:01:45.457Z,65.61
2023-04-27T05:03:09.095Z,64.98
2023-04-27T05:05:03.497Z,64.93
2023-04-27T05:06:27.297Z,64.96
2023-04-27T05:07:52.084Z,64.62
2023-04-27T05:09:14.074Z,64.49
2023-04-27T05:10:36.808Z,64.26
2023-04-27T05:12:10.450Z,64.30
2023-04-27T05:13:44.029Z,64.11
2023-04-27T05:15:20.083Z,63.56
2023-04-27T05:16:44.642Z,63.45
2023-04-27T05:18:09.032Z,63.56
2023-04-27T05:19:38.386Z,63.40
2023-04-27T05:21:02.617Z,63.45
2023-04-27T05:22:36.666Z,63.39
2023-04-27T05:23:58.312Z,63.18
2023-04-27T05:25:43.393Z,63.18
2023-04-27T05:27:07.142Z,63.23
2023-04-27T05:28:28.833Z,63.17
2023-04-27T05:29:53.777Z,62.97
2023-04-27T05:31:15.427Z,63.22
2023-04-27T05:32:39.742Z,63.15
2023-04-27T05:34:13.276Z,63.27
2023-04-27T05:35:35.218Z,63.24
2023-04-27T05:37:08.718Z,62.87
2023-04-27T05:38:33.508Z,63.36
2023-04-27T05:40:09.178Z,62.86
2023-04-27T05:41:30.611Z,62.83
2023-04-27T05:43:03.674Z,62.40
2023-04-27T05:44:32.750Z,61.99
2023-04-27T05:45:57.159Z,61.82
2023-04-27T05:47:25.898Z,61.57
2023-04-27T05:48:51.188Z,61.48
2023-04-27T05:50:26.409Z,61.73
2023-04-27T05:52:07.765Z,61.22
2023-04-27T05:53:31.545Z,61.08
2023-04-27T05:54:54.046Z,60.98
2023-04-27T05:56:30.393Z,61.18
2023-04-27T05:58:07.900Z,61.48
2023-04-27T05:59:32.840Z,61.13
2023-04-27T06:01:06.193Z,60.75
2023-04-27T06:02:35.490Z,60.70
2023-04-27T06:04:01.634Z,60.58
2023-04-27T06:05:42.789Z,60.23
2023-04-27T06:07:12.081Z,60.34
2023-04-27T06:08:45.537Z,59.99
2023-04-27T06:10:17.285Z,59.73
2023-04-27T06:11:51.117Z,59.51
2023-04-27T06:13:16.694Z,60.04
2023-04-27T06:14:52.583Z,59.65
2023-04-27T06:16:18.720Z,59.62
2023-04-27T06:17:54.896Z,59.52
2023-04-27T06:19:18.847Z,59.01
2023-04-27T06:20:53.641Z,59.06
2023-04-27T06:22:17.354Z,59.31
2023-04-27T06:23:57.467Z,58.58
2023-04-27T06:25:38.786Z,59.03
2023-04-27T06:27:19.324Z,58.58
2023-04-27T06:28:43.656Z,58.75
2023-04-27T06:30:07.301Z,58.79
2023-04-27T06:31:40.693Z,58.52
2023-04-27T06:33:14.095Z,58.25
2023-04-27T06:34:37.812Z,57.88
2023-04-27T06:36:04.537Z,58.02
2023-04-27T06:37:26.136Z,57.43
2023-04-27T06:39:00.082Z,57.78
2023-04-27T06:40:45.094Z,57.10
2023-04-27T06:42:17.326Z,57.11
2023-04-27T06:43:41.377Z,56.43
2023-04-27T06:45:04.733Z,56.60
2023-04-27T06:46:50.214Z,57.12
2023-04-27T06:48:11.919Z,56.42
2023-04-27T06:49:56.985Z,56.46
2023-04-27T06:51:28.310Z,56.01
2023-04-27T06:53:01.824Z,56.25
2023-04-27T06:54:23.596Z,55.92
2023-04-27T06:55:48.244Z,55.97
2023-04-27T06:57:12.784Z,55.24
2023-04-27T06:58:37.662Z,54.86
2023-04-27T07:00:13.241Z,54.35
2023-04-27T07:01:42.570Z,54.00
2023-04-27T07:03:11.553Z,54.45
2023-04-27T07:04:32.648Z,54.88
2023-04-27T07:05:59.616Z,54.25
2023-04-27T07:07:21.471Z,53.65
2023-04-27T07:08:45.817Z,53.51
2023-04-27T07:10:09.443Z,53.65
2023-04-27T07:11:33.453Z,53.79
2023-04-27T07:13:09.148Z,53.81
2023-04-27T07:14:43.149Z,53.32
2023-04-27T07:16:23.898Z,53.40
2023-04-27T07:17:48.550Z,53.52
2023-04-27T07:19:20.100Z,53.39
2023-04-27T07:20:44.757Z,53.59
2023-04-27T07:22:19.974Z,53.41
2023-04-27T07:24:11.696Z,53.61
2023-04-27T07:25:46.224Z,53.43
2023-04-27T07:27:26.768Z,53.59
2023-04-27T07:29:01.654Z,53.77
2023-04-27T07:30:49.313Z,53.83
2023-04-27T07:32:15.146Z,53.60
2023-04-27T07:33:48.691Z,53.68
2023-04-27T07:35:18.030Z,53.95
2023-04-27T07:36:40.376Z,53.73
2023-04-27T07:38:04.437Z,54.47
2023-04-27T07:39:49.370Z,54.30
2023-04-27T07:41:11.107Z,54.32
2023-04-27T07:42:37.511Z,53.85
2023-04-27T07:44:13.666Z,53.80
2023-04-27T07:45:51.061Z,53.85
2023-04-27T07:47:26.017Z,54.02
2023-04-27T07:49:11.930Z,52.98
2023-04-27T07:50:51.189Z,52.59
2023-04-27T07:52:12.967Z,52.67
2023-04-27T07:53:47.831Z,53.07
2023-04-27T07:55:21.864Z,52.78
2023-04-27T07:56:55.860Z,52.38
2023-04-27T07:58:17.331Z,52.01
2023-04-27T07:59:58.416Z,52.57
2023-04-27T08:01:21.944Z,52.92
2023-04-27T08:02:59.334Z,52.92
2023-04-27T08:04:30.867Z,52.12
2023-04-27T08:06:07.524Z,52.49
2023-04-27T08:07:36.039Z,51.59
2023-04-27T08:09:10.099Z,51.70
2023-04-27T08:10:33.993Z,51.74
2023-04-27T08:12:19.841Z,50.93
2023-04-27T08:25:58.345Z,50.32
2023-04-27T08:27:38.922Z,50.55
2023-04-27T08:29:28.401Z,50.37
2023-04-27T08:31:00.711Z,50.44
2023-04-27T08:32:34.648Z,50.03
2023-04-27T08:34:03.580Z,49.35
2023-04-27T08:35:28.144Z,49.47
2023-04-27T08:37:13.167Z,48.56
2023-04-27T08:38:50.141Z,47.45
2023-04-27T08:40:31.064Z,47.00
2023-04-27T08:41:52.925Z,47.42
2023-04-27T08:43:14.986Z,47.32
2023-04-27T08:44:48.503Z,47.18
2023-04-27T08:46:34.396Z,46.72
2023-04-27T08:48:10.485Z,47.07
2023-04-27T08:49:44.684Z,46.11
2023-04-27T08:51:29.989Z,46.27
2023-04-27T08:53:19.675Z,46.20
2023-04-27T08:54:52.086Z,45.89
2023-04-27T08:56:25.678Z,47.21
2023-04-27T08:58:10.620Z,45.35
2023-04-27T08:59:47.737Z,45.73
2023-04-27T09:01:35.401Z,45.96
2023-04-27T09:03:19.412Z,46.31
2023-04-27T09:05:05.734Z,45.62
2023-04-27T09:06:51.580Z,45.08
2023-04-27T09:08:37.714Z,44.87
2023-04-27T09:10:23.140Z,46.21
2023-04-27T09:11:58.859Z,45.54
2023-04-27T09:13:51.006Z,45.64
2023-04-27T09:15:25.001Z,45.07
2023-04-27T09:16:59.782Z,44.60
2023-04-27T09:18:35.794Z,44.93
2023-04-27T09:20:07.745Z,44.54
2023-04-27T09:21:30.971Z,44.81
2023-04-27T09:22:55.637Z,44.44
2023-04-27T09:24:41.174Z,43.97
2023-04-27T09:26:14.363Z,43.52
2023-04-27T09:27:47.802Z,43.69
2023-04-27T09:29:09.452Z,43.45
2023-04-27T09:30:44.496Z,44.10
2023-04-27T09:32:19.074Z,43.38
2023-04-27T09:33:40.824Z,43.41
2023-04-27T09:35:02.251Z,43.78
2023-04-27T09:36:26.896Z,42.93
2023-04-27T09:37:51.617Z,42.91
2023-04-27T09:39:13.621Z,42.72
2023-04-27T09:40:36.921Z,42.47
2023-04-27T09:42:12.060Z,42.12
2023-04-27T09:43:48.833Z,42.28
2023-04-27T09:45:10.802Z,42.22
2023-04-27T09:46:45.095Z,41.98
2023-04-27T09:48:14.450Z,42.10
2023-04-27T09:49:38.904Z,42.06
2023-04-27T09:51:03.043Z,41.90
2023-04-27T09:52:26.450Z,41.59
2023-04-27T09:53:48.192Z,41.08
2023-04-27T09:55:10.400Z,41.22
2023-04-27T09:56:35.042Z,41.81
2023-04-27T09:57:56.570Z,41.18
2023-04-27T09:59:18.579Z,41.48
2023-04-27T10:00:42.560Z,41.68
2023-04-27T10:02:23.491Z,42.42
2023-04-27T10:04:18.575Z,41.81
2023-04-27T10:05:40.708Z,41.94
2023-04-27T10:07:16.413Z,42.59
2023-04-27T10:08:52.386Z,42.27
2023-04-27T10:10:28.401Z,41.70
2023-04-27T10:12:11.628Z,41.99
2023-04-27T10:13:53.138Z,42.31
2023-04-27T10:15:40.057Z,42.48
2023-04-27T10:17:04.028Z,42.42
2023-04-27T10:18:49.849Z,42.38
2023-04-27T10:20:11.741Z,42.21
2023-04-27T10:21:53.447Z,42.13
2023-04-27T10:23:29.100Z,42.46
2023-04-27T10:24:57.674Z,42.56
2023-04-27T10:26:19.641Z,41.67
2023-04-27T10:27:53.281Z,40.75
2023-04-27T10:29:16.496Z,40.85
2023-04-27T10:30:50.148Z,40.53
2023-04-27T10:32:23.705Z,40.72
2023-04-27T10:33:57.413Z,41.20
2023-04-27T10:35:22.216Z,41.28
2023-04-27T10:36:46.186Z,41.72
2023-04-27T10:38:31.424Z,41.30
2023-04-27T10:39:55.071Z,40.47
2023-04-27T10:41:19.810Z,40.37
2023-04-27T10:42:44.100Z,40.94
2023-04-27T10:44:20.076Z,40.63
2023-04-27T10:45:42.514Z,40.75
2023-04-27T10:47:11.440Z,41.10
2023-04-27T10:48:33.421Z,41.19
2023-04-27T10:49:57.157Z,41.25
2023-04-27T10:51:27.200Z,41.27
2023-04-27T10:53:04.033Z,41.26
2023-04-27T10:54:40.044Z,42.09
2023-04-27T10:56:15.507Z,41.56
2023-04-27T10:57:39.600Z,41.48
2023-04-27T10:59:00.864Z,41.20
2023-04-27T11:00:37.256Z,41.14
2023-04-27T11:02:17.626Z,41.18
2023-04-27T11:03:55.435Z,40.94
2023-04-27T11:05:19.592Z,41.35
2023-04-27T11:06:53.608Z,41.29
2023-04-27T11:08:17.875Z,41.33
2023-04-27T11:09:39.890Z,41.18
2023-04-27T11:11:15.429Z,40.98
2023-04-27T11:12:52.216Z,41.37
2023-04-27T11:14:14.703Z,41.07
2023-04-27T11:15:57.040Z,41.13
2023-04-27T11:17:23.446Z,40.79
2023-04-27T11:18:45.166Z,40.48
2023-04-27T11:20:16.648Z,40.30
2023-04-27T11:21:57.002Z,40.08
2023-04-27T11:23:38.042Z,39.50
2023-04-27T11:24:59.489Z,40.01
2023-04-27T11:26:21.772Z,39.69
2023-04-27T11:27:43.242Z,39.20
2023-04-27T11:29:14.097Z,39.62
2023-04-27T11:30:55.632Z,39.90
2023-04-27T11:32:19.961Z,40.21
2023-04-27T11:34:10.781Z,39.96
2023-04-27T11:35:46.182Z,39.35
2023-04-27T11:37:18.476Z,39.16
2023-04-27T11:38:52.517Z,39.41
2023-04-27T11:40:29.385Z,39.67
2023-04-27T11:41:51.410Z,40.02
2023-04-27T11:43:13.061Z,40.14
2023-04-27T11:44:46.741Z,40.15
2023-04-27T11:46:10.933Z,40.23
2023-04-27T11:47:47.070Z,40.28
2023-04-27T11:49:20.839Z,40.69
2023-04-27T11:51:06.189Z,40.53
2023-04-27T11:52:40.026Z,41.25
2023-04-27T11:54:03.936Z,40.53
2023-04-27T11:55:44.996Z,40.13
2023-04-27T11:57:30.197Z,39.57
2023-04-27T11:59:15.550Z,39.30
2023-04-27T12:00:51.582Z,39.25
2023-04-27T12:02:17.951Z,38.71
2023-04-27T12:03:54.325Z,37.93
2023-04-27T12:05:35.198Z,37.59
2023-04-27T12:06:58.987Z,37.35
2023-04-27T12:08:30.798Z,37.17
2023-04-27T12:10:06.173Z,37.50
2023-04-27T12:11:40.120Z,37.60
2023-04-27T12:13:20.648Z,37.83
2023-04-27T12:14:45.106Z,37.94
2023-04-27T12:16:18.614Z,38.25
2023-04-27T12:17:41.498Z,38.51
2023-04-27T12:19:05.366Z,39.06
2023-04-27T12:20:29.939Z,38.80
2023-04-27T12:22:06.185Z,40.12
2023-04-27T12:23:50.569Z,39.69
2023-04-27T12:25:20.078Z,39.60
2023-04-27T12:26:44.173Z,40.39
2023-04-27T12:28:19.255Z,39.87
2023-04-27T12:29:41.120Z,40.26
2023-04-27T12:31:14.524Z,40.43
2023-04-27T12:32:59.461Z,40.09
2023-04-27T12:34:23.975Z,40.40
2023-04-27T12:35:47.289Z,39.76
2023-04-27T12:37:11.593Z,39.56
2023-04-27T12:38:48.163Z,39.19
2023-04-27T12:40:23.213Z,39.01
2023-04-27T12:42:01.086Z,39.27
2023-04-27T12:43:32.750Z,39.29
2023-04-27T12:44:56.656Z,39.47
2023-04-27T12:46:20.923Z,39.78
2023-04-27T12:48:00.877Z,40.32
2023-04-27T12:49:36.137Z,40.86
2023-04-27T12:51:00.126Z,41.07
2023-04-27T12:52:41.058Z,41.28
2023-04-27T12:54:14.881Z,41.91
2023-04-27T12:55:48.946Z,43.05
2023-04-27T12:57:10.449Z,43.85
2023-04-27T12:58:39.857Z,43.79
2023-04-27T13:00:02.069Z,44.32
2023-04-27T13:01:27.792Z,44.38
2023-04-27T13:02:49.361Z,44.55
2023-04-27T13:04:11.402Z,44.41
2023-04-27T13:05:47.965Z,44.70
2023-04-27T13:07:09.885Z,44.53
2023-04-27T13:08:43.580Z,44.60
2023-04-27T13:10:17.159Z,44.90
2023-04-27T13:11:46.576Z,44.98
2023-04-27T13:13:22.135Z,44.98
2023-04-27T13:14:46.624Z,44.65
2023-04-27T13:16:08.361Z,44.52
2023-04-27T13:17:30.692Z,44.85
2023-04-27T13:19:13.559Z,45.10
2023-04-27T13:20:51.057Z,45.25
2023-04-27T13:22:24.682Z,43.93
2023-04-27T13:24:07.551Z,43.80
2023-04-27T13:25:43.572Z,43.45
2023-04-27T13:27:17.006Z,43.43
2023-04-27T13:29:02.222Z,43.04
2023-04-27T13:30:26.510Z,43.12
2023-04-27T13:31:50.204Z,43.03
2023-04-27T13:33:24.221Z,42.84
2023-04-27T13:34:59.538Z,42.28
2023-04-27T13:36:24.030Z,41.50
2023-04-27T13:37:45.736Z,41.30
2023-04-27T13:39:07.697Z,41.51
2023-04-27T13:40:31.848Z,41.41
2023-04-27T13:41:53.636Z,41.32
2023-04-27T13:43:15.586Z,40.78
2023-04-27T13:44:37.524Z,41.01
2023-04-27T13:46:01.517Z,40.90
2023-04-27T13:47:38.047Z,39.92
2023-04-27T13:49:18.490Z,39.32
2023-04-27T13:50:40.899Z,38.59
2023-04-27T13:52:05.373Z,38.09
2023-04-27T13:53:38.857Z,37.86
2023-04-27T13:55:05.521Z,37.35
2023-04-27T13:56:30.297Z,36.65
2023-04-27T13:57:51.794Z,36.03
2023-04-27T13:59:16.107Z,35.75
2023-04-27T14:00:38.677Z,35.58
2023-04-27T14:02:00.309Z,34.50
2023-04-27T14:03:24.579Z,34.31
2023-04-27T14:04:57.965Z,32.96
2023-04-27T14:06:19.839Z,31.51
2023-04-27T14:07:44.204Z,31.89
2023-04-27T14:09:05.737Z,32.38
2023-04-27T14:10:27.984Z,31.37
2023-04-27T14:11:56.469Z,31.19
2023-04-27T14:13:19.428Z,30.85
2023-04-27T14:14:41.649Z,30.94
2023-04-27T14:16:15.097Z,31.20
2023-04-27T14:17:44.301Z,31.29
2023-04-27T14:19:06.190Z,31.44
2023-04-27T14:20:42.514Z,32.05
2023-04-27T14:22:17.504Z,32.60
2023-04-27T14:23:48.921Z,33.21
2023-04-27T14:25:34.240Z,33.88
2023-04-27T14:27:04.966Z,34.77
2023-04-27T14:28:29.611Z,35.40
2023-04-27T14:29:58.549Z,35.99
2023-04-27T14:31:20.570Z,36.36
2023-04-27T14:32:44.965Z,36.65
2023-04-27T14:34:14.489Z,37.26
2023-04-27T14:35:37.060Z,38.41
2023-04-27T14:37:22.369Z,39.43
2023-04-27T14:38:46.305Z,40.52
2023-04-27T14:40:22.083Z,41.19
2023-04-27T14:41:53.710Z,41.58
2023-04-27T14:43:17.745Z,42.06
2023-04-27T14:45:03.014Z,42.76
2023-04-27T14:46:28.336Z,43.14
2023-04-27T14:47:50.148Z,43.39
2023-04-27T14:49:30.825Z,43.55
2023-04-27T14:51:06.215Z,44.04
2023-04-27T14:52:30.438Z,44.66
2023-04-27T14:54:03.743Z,44.93
2023-04-27T14:55:37.142Z,44.95
2023-04-27T14:57:00.523Z,45.19
2023-04-27T14:58:27.114Z,45.54
2023-04-27T15:00:03.039Z,45.84
2023-04-27T15:01:27.675Z,45.86
2023-04-27T15:03:00.903Z,45.54
2023-04-27T15:04:35.504Z,45.50
2023-04-27T15:05:57.105Z,45.56
2023-04-27T15:07:21.310Z,45.77
2023-04-27T15:08:47.736Z,45.65
2023-04-27T15:10:09.320Z,45.66
2023-04-27T15:11:50.504Z,45.75
2023-04-27T15:13:21.900Z,46.05
2023-04-27T15:14:55.130Z,45.98
2023-04-27T15:16:22.429Z,46.14
2023-04-27T15:18:07.586Z,46.02
2023-04-27T15:19:29.992Z,46.17
2023-04-27T15:20:56.183Z,46.39
2023-04-27T15:22:18.232Z,46.26
2023-04-27T15:23:51.857Z,46.07
2023-04-27T15:25:20.956Z,46.23
2023-04-27T15:26:45.596Z,46.61
2023-04-27T15:28:21.071Z,46.33
2023-04-27T15:29:43.028Z,46.54
2023-04-27T15:31:12.450Z,46.71
2023-04-27T15:32:37.220Z,46.61
2023-04-27T15:34:10.535Z,46.52
2023-04-27T15:35:34.750Z,46.39
2023-04-27T15:37:19.547Z,46.26
2023-04-27T15:38:53.207Z,46.68
2023-04-27T15:40:26.981Z,46.93
2023-04-27T15:41:58.263Z,47.40
2023-04-27T15:43:22.293Z,47.38
2023-04-27T15:44:56.232Z,48.12
2023-04-27T15:46:20.137Z,47.85
2023-04-27T15:47:41.980Z,47.65
2023-04-27T15:49:03.939Z,47.96
2023-04-27T15:50:26.049Z,48.09
2023-04-27T15:51:55.362Z,48.12
2023-04-27T15:53:17.446Z,48.14
2023-04-27T15:54:41.889Z,48.50
2023-04-27T15:56:05.777Z,48.46
2023-04-27T15:57:39.464Z,48.42
2023-04-27T15:59:20.148Z,48.33
2023-04-27T16:00:41.964Z,48.64
2023-04-27T16:02:11.512Z,49.05
2023-04-27T16:03:37.600Z,49.14
2023-04-27T16:05:01.487Z,48.77
2023-04-27T16:06:26.043Z,48.95
2023-04-27T16:07:59.138Z,48.38
2023-04-27T16:09:32.734Z,47.77
2023-04-27T16:10:54.329Z,48.07
2023-04-27T16:12:16.463Z,48.02
2023-04-27T16:13:40.813Z,47.39
2023-04-27T16:15:02.553Z,47.63
2023-04-27T16:16:36.419Z,47.99
2023-04-27T16:18:00.768Z,47.61
2023-04-27T16:19:25.897Z,47.65
2023-04-27T16:20:47.612Z,47.53
2023-04-27T16:22:09.368Z,48.00
2023-04-27T16:23:31.551Z,47.92
2023-04-27T16:25:00.049Z,47.57
2023-04-27T16:26:26.610Z,47.77
2023-04-27T16:27:52.526Z,47.93
2023-04-27T16:29:16.987Z,47.75
2023-04-27T16:31:02.052Z,47.26
2023-04-27T16:32:24.778Z,47.57
2023-04-27T16:33:49.265Z,47.94
2023-04-27T16:35:10.975Z,48.16
2023-04-27T16:36:37.862Z,48.58
2023-04-27T16:37:59.667Z,48.53
2023-04-27T16:39:21.407Z,47.93
2023-04-27T16:40:45.956Z,47.96
2023-04-27T16:42:10.178Z,48.26
2023-04-27T16:43:55.256Z,48.07
2023-04-27T16:45:19.165Z,47.97
2023-04-27T16:46:51.261Z,47.74
2023-04-27T16:48:13.054Z,47.48
2023-04-27T16:49:37.754Z,47.84
2023-04-27T16:51:00.058Z,47.51
2023-04-27T16:52:30.371Z,47.33
2023-04-27T16:54:03.689Z,47.06
2023-04-27T16:55:37.448Z,46.63
2023-04-27T16:57:22.169Z,47.03
2023-04-27T16:59:08.547Z,47.20
2023-04-27T17:00:30.986Z,47.33
2023-04-27T17:01:52.391Z,47.36
2023-04-27T17:03:16.663Z,47.47
2023-04-27T17:04:42.068Z,47.13
2023-04-27T17:06:05.686Z,47.17
2023-04-27T17:07:40.231Z,47.34
2023-04-27T17:09:11.307Z,47.60
2023-04-27T17:10:36.491Z,47.99
2023-04-27T17:12:00.492Z,48.37
2023-04-27T17:13:32.244Z,48.75
2023-04-27T17:15:07.482Z,48.93
2023-04-27T17:16:29.799Z,49.17
2023-04-27T17:18:10.506Z,49.54
2023-04-27T17:19:35.136Z,49.55
2023-04-27T17:20:59.089Z,49.92
2023-04-27T17:22:21.266Z,49.89
2023-04-27T17:23:54.990Z,49.86
2023-04-27T17:25:21.331Z,50.06
2023-04-27T17:26:45.963Z,50.03
2023-04-27T17:28:14.947Z,50.18
2023-04-27T17:29:39.484Z,50.19
2023-04-27T17:31:01.756Z,49.95
2023-04-27T17:32:23.572Z,50.01
2023-04-27T17:33:45.139Z,50.10
2023-04-27T17:35:10.434Z,50.22
2023-04-27T17:36:42.001Z,50.47
2023-04-27T17:38:16.502Z,50.09
2023-04-27T17:40:00.371Z,50.23
2023-04-27T17:41:35.502Z,50.73
2023-04-27T17:43:00.903Z,50.85
2023-04-27T17:44:36.517Z,50.57
2023-04-27T17:46:09.751Z,51.11
2023-04-27T17:47:57.231Z,50.93
2023-04-27T17:49:18.947Z,51.30
2023-04-27T17:50:54.729Z,51.49
2023-04-27T17:52:37.668Z,51.62
2023-04-27T17:54:18.029Z,51.75
2023-04-27T17:55:42.813Z,51.74
2023-04-27T17:57:13.846Z,51.88
2023-04-27T17:58:45.935Z,51.71
2023-04-27T18:00:15.002Z,52.12
2023-04-27T18:01:51.550Z,52.45
2023-04-27T18:03:13.456Z,52.34
2023-04-27T18:04:36.580Z,52.48
2023-04-27T18:05:58.061Z,52.75
2023-04-27T18:07:20.490Z,52.78
2023-04-27T18:08:42.098Z,52.77
2023-04-27T18:10:04.070Z,52.96
2023-04-27T18:11:25.897Z,52.58
2023-04-27T18:12:47.616Z,52.75
2023-04-27T18:14:23.401Z,52.56
2023-04-27T18:16:15.702Z,52.68
2023-04-27T18:17:40.424Z,52.81
2023-04-27T18:19:02.197Z,53.14
2023-04-27T18:20:25.658Z,53.43
2023-04-27T18:21:47.693Z,53.30
2023-04-27T18:23:09.964Z,53.47
2023-04-27T18:24:32.076Z,53.33
2023-04-27T18:26:01.306Z,53.28
2023-04-27T18:27:32.787Z,53.71
2023-04-27T18:29:05.769Z,53.36
2023-04-27T18:30:30.102Z,53.45
2023-04-27T18:31:53.910Z,53.75
2023-04-27T18:33:20.080Z,54.20
2023-04-27T18:34:42.228Z,54.16
2023-04-27T18:36:03.772Z,54.62
2023-04-27T18:37:37.869Z,54.52
2023-04-27T18:38:59.819Z,53.95
2023-04-27T18:40:21.804Z,54.60
2023-04-27T18:41:57.720Z,55.29
2023-04-27T18:43:21.844Z,55.49
2023-04-27T18:44:43.759Z,55.73
2023-04-27T18:46:05.510Z,55.94
2023-04-27T18:47:27.642Z,55.46
2023-04-27T18:48:51.514Z,55.77
2023-04-27T18:50:15.723Z,56.54
2023-04-27T18:51:40.793Z,56.57
2023-04-27T18:53:02.744Z,56.44
2023-04-27T18:54:27.247Z,56.49
2023-04-27T18:55:51.692Z,56.88
2023-04-27T18:57:13.350Z,56.60
2023-04-27T18:58:35.708Z,57.09
2023-04-27T18:59:57.346Z,57.26
2023-04-27T19:01:19.156Z,57.09
2023-04-27T19:02:41.498Z,56.69
2023-04-27T19:04:10.888Z,57.37
2023-04-27T19:05:40.798Z,57.84
2023-04-27T19:07:08.047Z,57.58
2023-04-27T19:08:41.861Z,57.67
2023-04-27T19:10:05.712Z,58.34
2023-04-27T19:11:28.869Z,58.15
2023-04-27T19:12:50.376Z,58.47
2023-04-27T19:14:12.195Z,58.92
2023-04-27T19:15:38.973Z,58.90
2023-04-27T19:17:21.093Z,59.28
2023-04-27T19:18:50.463Z,59.33
2023-04-27T19:20:22.419Z,59.52